< < Back
Terminal Aerodrome Forecast


Current Version              Previous Versions:   1  2  3  4  5  6  7  8  9  

Terminal Aerodrome Forecast

984
FTUS42 KILM 242320
TAFFLO
TAF
KFLO 242320Z 2500/2524 21007KT P6SM VCTS SCT050CB
     FM250100 20005KT P6SM VCSH SCT050 BKN140
     FM250900 31003KT 4SM BR BKN100
     FM251300 22007KT P6SM SCT040 BKN150
     FM251800 VRB04KT P6SM VCTS SCT045CB BKN100=

Latest METAR

665
SAUS70 KWBC 250600 RRE
MTRFLO
METAR KFLO 250553Z AUTO 00000KT 10SM CLR 23/22 A3000 RMK AO2 SLP157
T02280217 10256 20228 58006


USA.gov is the U.S. government's official web portal to all federal, state and local government web resources and services.